Latest Weather Observations for Moss Vale

IDN60801

Issued at 6:02 pm EST Saturday 4 July 2015 (issued every 30 minutes, with the page automatically refreshed every 10 minutes)

About weather observations | Map of weather stations | Latest weather observations for NSW | Other Formats
Station Details ID: 068239 Name: MOSS VALE AWS Lat: -34.53 Lon: 150.42 Height: 678.4 m
Data from the previous 72 hours. | See also: Recent months at Moss Vale
Date/Time
EST
Temp
°C
App
Temp
°C
Dew
Point
Rel
Hum
%
Delta-T
°C
Wind Press
QNH
hPa
Press
MSL
hPa
Rain
since 9 am
mm
Dir
 
Spd
km/h
Gust
km/h
Spd
kts
Gust
kts
04/06:00pm 4.8 -0.4 0.0 71 1.9 WSW 17 20 9 11 1020.9 - -
04/05:30pm 5.2 0.0 -0.2 68 2.1 SW 17 22 9 12 1020.7 1021.5 0.0
04/05:00pm 6.0 0.8 -0.1 65 2.4 SW 17 22 9 12 1020.6 1021.4 0.0
04/04:30pm 7.0 2.2 0.0 61 2.8 WSW 15 20 8 11 1020.5 1021.3 0.0
04/04:00pm 7.6 1.0 -0.1 58 3.1 WSW 24 33 13 18 1020.3 1021.1 0.0
04/03:30pm 8.2 2.0 -0.3 55 3.5 WSW 22 33 12 18 1020.1 1020.9 0.0
04/03:00pm 8.9 2.4 0.4 55 3.5 WSW 24 33 13 18 1019.8 1020.5 0.0
04/02:30pm 8.9 2.4 0.1 54 3.7 WSW 24 33 13 18 1019.7 1020.4 0.0
04/02:00pm 8.6 2.1 0.1 55 3.5 SW 24 35 13 19 1019.6 1020.3 0.0
04/01:30pm 8.4 1.6 -1.7 49 4.0 SW 24 32 13 17 1019.6 1020.3 0.0
04/01:00pm 7.5 -0.6 -2.8 48 3.9 WSW 30 39 16 21 1019.9 1020.7 0.0
04/12:30pm 7.8 1.0 -2.2 49 3.9 SW 24 37 13 20 1020.1 1020.9 0.0
04/12:00pm 7.1 1.1 -1.8 53 3.5 WSW 20 28 11 15 1020.3 1021.1 0.0
04/11:30am 6.1 -0.4 -2.7 53 3.3 SW 22 33 12 18 1020.8 1021.6 0.0
04/11:00am 5.0 -0.6 -2.6 58 2.8 WSW 17 24 9 13 1021.1 1021.8 0.0
04/10:30am 4.0 -2.2 -3.3 59 2.6 WSW 20 28 11 15 1021.2 1022.0 0.0
04/10:00am 5.0 -3.1 -2.8 57 2.9 W 30 41 16 22 1020.9 1021.7 0.0
04/09:00am 2.3 -4.7 -3.6 65 2.1 W 24 37 13 20 1021.2 1022.0 0.2
04/08:30am 2.2 -4.8 -3.1 68 1.9 W 24 32 13 17 1020.9 1021.7 0.2
04/08:00am 1.4 -3.8 -2.9 73 1.6 W 15 22 8 12 1020.9 1021.7 0.0
04/07:30am 0.8 -5.7 -2.8 77 1.3 W 22 30 12 16 1021.1 1021.8 0.0
04/07:00am 0.5 -6.8 -3.1 77 1.3 W 26 33 14 18 1020.8 1021.6 0.0
04/06:30am 0.4 -5.8 -3.1 77 1.3 W 20 30 11 16 1020.8 1021.6 0.0
04/05:30am 0.4 -5.8 -3.1 77 1.3 W 20 28 11 15 1020.5 1021.3 0.0
04/05:00am 0.1 -5.5 -2.8 81 1.0 W 17 22 9 12 1020.5 1021.3 0.0
04/04:30am 0.0 -4.4 -2.7 82 1.0 W 11 17 6 9 1020.7 1021.5 0.0
04/04:00am -0.8 -4.5 -3.2 84 0.8 WNW 7 15 4 8 1021.1 1021.8 0.0
04/03:30am -0.7 -4.4 -2.9 85 0.7 WNW 7 11 4 6 1021.5 1022.3 0.0
04/03:00am -1.3 -5.7 -2.7 90 0.4 NW 11 17 6 9 1022.0 1022.8 0.0
04/02:30am -2.1 -6.4 -4.7 82 0.8 NNW 9 11 5 6 1022.3 1023.2 0.0
04/02:00am -1.6 -5.4 -3.5 87 0.6 NW 7 11 4 6 1022.8 1023.6 0.0
04/01:30am -2.4 -6.6 -4.3 87 0.5 N 9 11 5 6 1022.8 1023.6 0.0
04/01:00am -2.1 -6.7 -3.8 88 0.5 N 11 11 6 6 1022.6 1023.4 0.0
04/12:30am -2.0 -6.2 -3.7 88 0.5 NNW 9 11 5 6 1023.3 1024.1 0.0
04/12:00am -1.5 -5.0 -2.8 91 0.4 NNE 6 7 3 4 1023.5 1024.3 0.0
 
Date/Time
EST
Temp
°C
App
Temp
°C
Dew
Point
Rel
Hum
%
Delta-T
°C
Wind Press
QNH
hPa
Press
MSL
hPa
Rain
since 9 am
mm
Dir
 
Spd
km/h
Gust
km/h
Spd
kts
Gust
kts
03/11:30pm -1.4 -5.4 -2.4 93 0.3 NNE 9 9 5 5 1023.9 1024.8 0.0
03/11:00pm -1.1 -4.5 -2.1 93 0.3 NNW 6 7 3 4 1024.0 1024.9 0.0
03/10:58pm -1.1 -4.1 -2.1 93 0.3 N 4 7 2 4 1024.0 1024.9 0.0
03/10:33pm -1.7 -4.4 -2.8 92 0.3 NW 2 7 1 4 1024.4 1025.2 0.0
03/10:30pm -1.5 -4.2 -2.6 92 0.3 WNW 2 7 1 4 1024.4 1025.2 0.0
03/10:00pm -0.9 -4.3 -2.2 91 0.4 W 6 7 3 4 1024.5 1025.3 0.0
03/09:53pm -1.2 -4.7 -2.6 90 0.4 W 6 7 3 4 1024.6 1025.4 0.0
03/09:37pm -1.7 -5.8 -3.4 88 0.5 W 9 13 5 7 1024.7 1025.5 0.0
03/09:30pm -0.4 -4.7 -1.5 92 0.4 W 11 13 6 7 1024.7 1025.5 0.0
03/09:00pm 0.4 -2.9 -0.2 96 0.2 W 7 11 4 6 1024.8 1025.6 0.0
03/08:30pm 0.3 -3.1 -0.5 94 0.3 W 7 11 4 6 1024.7 1025.5 0.0
03/08:00pm 0.6 -1.8 -0.5 92 0.4 NNE 2 6 1 3 1024.8 1025.6 0.0
03/07:30pm 1.0 -2.4 -0.6 89 0.6 NNE 7 9 4 5 1024.5 1025.3 0.0
03/07:00pm 2.0 0.0 -0.2 85 0.8 CALM 0 0 0 0 1024.6 1025.4 0.0
03/06:30pm 2.6 0.6 -0.2 82 1.1 CALM 0 0 0 0 1024.6 1025.4 0.0
03/06:00pm 4.1 1.0 -0.1 74 1.6 N 6 7 3 4 1024.4 1025.2 0.0
03/05:30pm 4.9 1.7 -0.7 67 2.2 WNW 6 7 3 4 1024.2 1025.0 0.0
03/05:00pm 6.9 3.5 -0.5 59 3.0 W 7 9 4 5 1024.2 1025.0 0.0
03/04:30pm 8.0 4.2 -0.7 54 3.5 W 9 11 5 6 1024.0 1024.9 0.0
03/04:00pm 8.8 5.5 0.0 54 3.6 W 7 9 4 5 1024.2 1025.0 0.0
03/03:30pm 8.9 5.2 -0.1 53 3.7 W 9 11 5 6 1024.0 1024.9 0.0
03/03:00pm 8.4 4.6 -0.6 53 3.6 WSW 9 13 5 7 1023.8 1024.7 0.0
03/02:30pm 9.2 5.9 0.4 54 3.7 W 7 17 4 9 1023.8 1024.7 0.0
03/02:00pm 8.5 4.7 -0.8 52 3.7 W 9 19 5 10 1023.9 1024.8 0.0
03/01:30pm 8.1 4.7 -0.6 54 3.5 WSW 7 17 4 9 1024.2 1025.0 0.0
03/01:00pm 7.6 3.8 -0.6 56 3.3 SSW 9 19 5 10 1024.8 1025.6 0.0
03/12:30pm 7.6 4.5 0.3 60 3.0 S 6 13 3 7 1025.1 1026.0 0.0
03/12:00pm 7.1 3.1 0.3 62 2.8 SSW 11 17 6 9 1025.5 1026.4 0.0
03/11:30am 6.7 1.9 0.4 64 2.6 S 15 20 8 11 1025.9 1026.7 0.0
03/11:00am 6.2 1.3 -0.5 62 2.7 S 15 20 8 11 1026.3 1027.2 0.0
03/10:30am 5.7 0.7 -1.0 62 2.6 SW 15 20 8 11 1026.5 1027.4 0.0
03/10:00am 4.4 -0.4 -2.2 62 2.5 WSW 13 17 7 9 1026.6 1027.5 0.0
03/09:30am 3.4 -1.0 -2.1 67 2.0 W 11 13 6 7 1026.5 1027.4 0.0
03/09:00am 1.4 -3.5 -3.3 71 1.7 WSW 13 15 7 8 1026.3 1027.2 0.0
03/08:30am -0.1 -4.6 -3.5 78 1.2 WSW 11 13 6 7 1026.1 1026.9 0.0
03/08:00am -1.1 -4.9 -3.4 84 0.7 W 7 9 4 5 1025.5 1026.4 0.0
03/07:30am -2.4 -7.4 -4.4 86 0.6 WSW 13 17 7 9 1025.3 1026.2 0.0
03/07:00am -2.9 -7.2 -4.6 88 0.4 NNW 9 11 5 6 1025.2 1026.1 0.0
03/06:30am -2.4 -7.8 -4.6 85 0.6 WSW 15 19 8 10 1024.9 1025.8 0.0
03/06:00am -2.0 -6.3 -4.8 81 0.8 W 9 9 5 5 1024.4 1025.2 0.0
03/05:30am -1.8 -6.5 -5.1 78 1.0 WSW 11 15 6 8 1024.3 1025.1 0.0
03/05:00am -1.4 -5.7 -4.9 77 1.1 WNW 9 13 5 7 1024.0 1024.9 0.0
03/04:30am -1.2 -5.9 -4.7 77 1.1 WSW 11 15 6 8 1023.8 1024.7 0.0
03/04:00am -1.3 -6.3 -4.5 79 1.0 WSW 13 17 7 9 1023.6 1024.5 0.0
03/03:30am -1.4 -6.4 -4.7 78 1.0 SW 13 19 7 10 1023.4 1024.2 0.0
03/03:00am -1.4 -7.2 -4.7 78 1.0 WSW 17 20 9 11 1023.5 1024.3 0.0
03/02:30am -1.3 -6.3 -4.6 78 1.0 WSW 13 15 7 8 1023.4 1024.2 0.0
03/02:00am -0.3 -4.2 -4.4 74 1.4 W 7 9 4 5 1023.5 1024.3 0.0
03/01:30am -0.1 -5.1 -4.2 74 1.4 WSW 13 19 7 10 1023.5 1024.3 0.0
03/01:00am 0.1 -4.5 -4.5 71 1.6 WSW 11 13 6 7 1023.4 1024.2 0.0
03/12:30am 1.3 -3.7 -4.3 66 2.0 SW 13 17 7 9 1023.4 1024.2 0.0
03/12:00am 1.3 -3.6 -3.7 69 1.8 SW 13 15 7 8 1023.6 1024.5 0.0
 
Date/Time
EST
Temp
°C
App
Temp
°C
Dew
Point
Rel
Hum
%
Delta-T
°C
Wind Press
QNH
hPa
Press
MSL
hPa
Rain
since 9 am
mm
Dir
 
Spd
km/h
Gust
km/h
Spd
kts
Gust
kts
02/11:30pm 1.8 -3.5 -3.5 68 2.0 WSW 15 22 8 12 1023.7 1024.6 0.0
02/11:00pm 2.6 -3.6 -3.3 65 2.1 SW 20 28 11 15 1023.5 1024.3 0.0
02/10:30pm 2.4 -3.7 -2.5 70 1.8 SW 20 30 11 16 1023.5 1024.3 0.0
02/10:00pm 2.3 -3.7 -1.7 75 1.5 SW 20 26 11 14 1023.3 1024.1 0.0
02/09:30pm 2.5 -3.2 -0.8 79 1.3 WSW 19 24 10 13 1023.1 1023.9 0.0
02/09:00pm 2.7 -2.5 -0.2 81 1.1 SW 17 20 9 11 1023.1 1023.9 0.0
02/08:30pm 3.2 -1.2 0.6 83 1.0 SW 13 20 7 11 1022.6 1023.4 0.0
02/08:00pm 3.9 -2.1 0.9 81 1.2 SW 22 32 12 17 1022.1 1022.9 0.0
02/07:30pm 4.5 -2.3 1.0 78 1.4 SW 26 39 14 21 1021.6 1022.4 0.0
02/07:00pm 4.9 -2.7 0.7 74 1.7 WSW 30 43 16 23 1020.8 1021.6 0.0
02/06:30pm 5.5 -1.7 0.7 71 2.0 WSW 28 43 15 23 1019.9 1020.7 0.0
02/06:00pm 5.1 -2.6 0.1 70 2.0 WSW 30 41 16 22 1019.7 1020.4 0.0
02/05:35pm 5.4 -2.9 -0.2 67 2.2 WSW 33 52 18 28 1018.8 1019.6 0.0
02/05:30pm 5.4 -2.7 0.0 68 2.2 WSW 32 46 17 25 1018.7 1019.5 0.0
02/05:00pm 5.6 -3.4 0.0 67 2.2 WSW 37 57 20 31 1018.5 1019.2 0.0
02/04:30pm 6.2 -3.1 0.7 68 2.3 WSW 39 57 21 31 1018.3 1019.0 0.0
02/04:00pm 6.7 -1.7 1.4 69 2.2 WSW 35 59 19 32 1017.0 1017.7 0.0
02/03:30pm 6.3 -1.4 2.2 75 1.7 WSW 32 50 17 27 1017.3 1018.1 0.0
02/03:11pm 6.3 -1.1 2.0 74 1.8 W 30 48 16 26 1017.1 1017.8 0.0
02/03:00pm 6.5 -0.8 2.2 74 1.8 WSW 30 44 16 24 1016.8 1017.5 0.0
02/02:30pm 7.0 -0.8 2.7 74 1.9 WSW 33 52 18 28 1017.1 1017.8 0.0
02/02:00pm 7.4 0.1 2.5 71 2.1 W 30 43 16 23 1016.9 1017.6 0.0
02/01:30pm 8.4 1.0 1.6 62 2.9 W 30 46 16 25 1017.0 1017.7 0.0
02/01:00pm 7.7 0.4 2.2 68 2.4 WSW 30 37 16 20 1017.6 1018.4 0.0
02/12:30pm 7.8 -1.4 1.4 64 2.7 WSW 39 59 21 32 1017.4 1018.2 0.0
02/12:01pm 7.9 -0.5 1.5 64 2.7 WSW 35 54 19 29 1018.2 1018.9 0.0
02/12:00pm 7.8 -1.0 1.4 64 2.7 WSW 37 54 20 29 1018.2 1018.9 0.0
02/11:30am 7.3 -2.6 1.6 67 2.4 WSW 43 65 23 35 1018.5 1019.2 0.0
02/11:00am 7.4 -0.9 1.9 68 2.3 WSW 35 54 19 29 1018.8 1019.6 0.0
02/10:30am 7.0 -3.0 1.3 67 2.4 WSW 43 61 23 33 1019.5 1020.2 0.0
02/10:02am 6.6 -2.0 0.5 65 2.5 WSW 35 56 19 30 1019.2 1020.0 0.0
02/10:00am 6.7 -1.5 0.6 65 2.5 WSW 33 44 18 24 1019.2 1020.0 0.0
02/09:30am 5.9 -1.3 0.9 70 2.1 WSW 28 48 15 26 1019.5 1020.2 0.0
02/09:28am 5.7 -1.5 0.5 69 2.1 W 28 48 15 26 1019.5 1020.2 0.0
02/09:00am 4.5 -3.1 0.3 74 1.7 W 30 43 16 23 1019.3 1020.1 0.0
02/08:30am 4.0 -3.7 -0.2 74 1.6 WSW 30 46 16 25 1019.5 1020.2 0.0
02/08:00am 3.8 -4.9 -0.2 75 1.6 WSW 35 48 19 26 1019.2 1020.0 0.0
02/07:30am 3.2 -3.0 -0.1 79 1.3 WSW 22 32 12 17 1019.5 1020.2 0.0
02/07:00am 3.0 -3.6 -0.5 78 1.3 W 24 33 13 18 1019.5 1020.2 0.0
02/06:30am 3.1 -3.5 -0.5 77 1.4 WSW 24 33 13 18 1019.3 1020.1 0.0
02/06:00am 3.2 -3.9 -1.2 73 1.7 WSW 26 33 14 18 1019.1 1019.9 0.0
02/05:30am 3.1 -3.3 -1.4 72 1.7 WSW 22 33 12 18 1019.1 1019.9 0.0
02/05:00am 2.9 -4.2 -1.3 74 1.6 WSW 26 35 14 19 1019.1 1019.9 0.0
02/04:30am 2.5 -3.5 -1.3 76 1.4 SW 20 30 11 16 1019.3 1020.1 0.0
02/04:00am 2.3 -3.5 -1.3 77 1.3 WSW 19 26 10 14 1019.6 1020.3 0.0
02/03:30am 1.8 -2.5 -1.4 79 1.2 SW 11 17 6 9 1020.0 1020.8 0.0
02/03:00am 1.8 -3.2 -1.4 79 1.2 WSW 15 30 8 16 1020.3 1021.1 0.0
02/02:30am 2.1 -5.4 -1.3 78 1.3 W 28 37 15 20 1020.0 1020.8 0.0
02/02:00am 2.3 -4.8 -1.3 77 1.3 W 26 37 14 20 1019.9 1020.7 0.0
02/01:40am 2.4 -5.0 -1.0 78 1.3 W 28 46 15 25 1019.9 1020.7 0.0
02/01:30am 2.5 -4.6 -1.1 77 1.4 W 26 39 14 21 1020.1 1020.9 0.0
02/01:00am 2.7 -6.1 -0.9 77 1.4 W 35 50 19 27 1020.1 1020.9 0.0
02/12:54am 2.7 -4.7 -0.7 78 1.3 W 28 46 15 25 1020.2 1021.0 0.0
02/12:30am 2.7 -5.1 -0.7 78 1.3 W 30 43 16 23 1020.5 1021.3 0.0
02/12:00am 2.9 -4.0 0.1 82 1.1 W 26 39 14 21 1021.2 1022.0 0.0
 
Date/Time
EST
Temp
°C
App
Temp
°C
Dew
Point
Rel
Hum
%
Delta-T
°C
Wind Press
QNH
hPa
Press
MSL
hPa
Rain
since 9 am
mm
Dir
 
Spd
km/h
Gust
km/h
Spd
kts
Gust
kts
01/11:30pm 3.0 -5.0 0.4 83 1.0 W 32 41 17 22 1021.3 1022.1 0.0
01/11:00pm 3.0 -4.6 0.4 83 1.0 W 30 39 16 21 1021.6 1022.4 0.0
01/10:30pm 2.9 -3.9 0.6 85 0.9 W 26 33 14 18 1021.9 1022.7 0.0
01/10:00pm 2.9 -4.3 0.8 86 0.8 W 28 41 15 22 1022.1 1022.9 0.0
01/09:30pm 2.9 -3.5 0.8 86 0.8 W 24 32 13 17 1022.2 1023.0 0.0
01/09:00pm 3.1 -4.1 0.8 85 0.9 W 28 35 15 19 1022.6 1023.4 0.0
01/08:30pm 3.2 -2.4 1.1 86 0.8 W 20 28 11 15 1022.4 1023.3 0.0
01/08:00pm 3.4 -1.6 1.3 86 0.8 W 17 22 9 12 1023.0 1023.8 0.0
01/07:30pm 3.7 -0.2 1.4 85 0.9 WSW 11 19 6 10 1023.1 1023.9 0.0
01/07:00pm 4.2 -0.7 1.9 85 0.9 W 17 24 9 13 1022.9 1023.7 0.0
01/06:30pm 4.6 0.1 2.1 84 1.0 WSW 15 20 8 11 1022.9 1023.7 0.0

Other Formats:

Comma delimited format used in spreadsheet applications
http://www.bom.gov.au/fwo/IDN60801/IDN60801.94746.axf

JavaScript Object Notation format (JSON) in row-major order
http://www.bom.gov.au/fwo/IDN60801/IDN60801.94746.json